Time;durP1;ratioP1;P1;durP2;ratioP2;P2;SDS_P1;SDS_P2;PMS_P1;PMS_P2;Temp;Humidity;BMP_temperature;BMP_pressure;BME280_temperature;BME280_humidity;BME280_pressure;Samples;Min_cycle;Max_cycle;Signal;HPM_P1;HPM_P2
2021/06/28 00:02:38;;;;;;;5.97;3.17;;;;;;;;;;5110508;27;20470;-72
2021/06/28 00:05:06;;;;;;;7.80;4.00;;;;;;;;;;5110106;28;20031;-72
2021/06/28 00:07:32;;;;;;;9.32;3.60;;;;;;;;;;5110570;28;20356;-72
2021/06/28 00:09:58;;;;;;;11.23;5.78;;;;;;;;;;5110254;28;20024;-72
2021/06/28 00:12:24;;;;;;;6.40;3.78;;;;;;;;;;5110403;28;20031;-72
2021/06/28 00:14:51;;;;;;;7.85;4.25;;;;;;;;;;5110263;28;20034;-72
2021/06/28 00:17:17;;;;;;;6.47;3.88;;;;;;;;;;5110014;28;20074;-71
2021/06/28 00:19:43;;;;;;;8.82;3.97;;;;;;;;;;5110241;28;20391;-72
2021/06/28 00:22:09;;;;;;;6.10;2.97;;;;;;;;;;5110425;28;20456;-72
2021/06/28 00:24:35;;;;;;;9.07;4.10;;;;;;;;;;5109748;28;20051;-72
2021/06/28 00:27:01;;;;;;;6.68;4.15;;;;;;;;;;5108889;28;20089;-72
2021/06/28 00:31:29;;;;;;;7.90;3.40;;;;;;;;;;5110162;27;20385;-73
2021/06/28 00:33:56;;;;;;;8.90;3.88;;;;;;;;;;5109158;28;20441;-72
2021/06/28 00:36:22;;;;;;;8.20;4.05;;;;;;;;;;5110434;28;20026;-72
2021/06/28 00:40:24;;;;;;;7.35;4.30;;;;;;;;;;5110187;27;20397;-73
2021/06/28 00:42:50;;;;;;;7.30;4.20;;;;;;;;;;5109286;28;20028;-72
2021/06/28 00:45:21;;;;;;;7.10;3.92;;;;;;;;;;5110207;28;20024;-72
2021/06/28 00:48:52;;;;;;;6.40;3.65;;;;;;;;;;5110543;27;20416;-72
2021/06/28 00:51:18;;;;;;;7.43;3.58;;;;;;;;;;5110776;28;20023;-72
2021/06/28 00:53:44;;;;;;;7.53;4.18;;;;;;;;;;5108758;28;20469;-72
2021/06/28 00:56:10;;;;;;;8.13;4.20;;;;;;;;;;5110455;28;20031;-72
2021/06/28 00:58:37;;;;;;;8.32;4.03;;;;;;;;;;5110331;28;20028;-72
2021/06/28 01:01:04;;;;;;;6.65;3.90;;;;;;;;;;5109895;28;20085;-72
2021/06/28 01:03:30;;;;;;;5.75;3.35;;;;;;;;;;5110332;28;20057;-72
2021/06/28 01:06:28;;;;;;;5.13;2.65;;;;;;;;;;5110405;27;20521;-72
2021/06/28 01:08:54;;;;;;;6.07;3.38;;;;;;;;;;5110551;28;20085;-72
2021/06/28 01:11:21;;;;;;;5.65;3.00;;;;;;;;;;5110442;28;20020;-72
2021/06/28 01:17:39;;;;;;;9.43;4.18;;;;;;;;;;5110573;27;20405;-72
2021/06/28 01:20:22;;;;;;;7.68;4.47;;;;;;;;;;5110587;28;20031;-72
2021/06/28 01:22:49;;;;;;;7.15;3.78;;;;;;;;;;5110637;28;20488;-72
2021/06/28 01:25:17;;;;;;;6.75;3.65;;;;;;;;;;5109293;28;20430;-71
2021/06/28 01:27:44;;;;;;;8.32;4.55;;;;;;;;;;5109964;28;20032;-72
2021/06/28 01:30:12;;;;;;;4.85;3.00;;;;;;;;;;5110344;28;20020;-72
2021/06/28 01:34:04;;;;;;;7.43;3.33;;;;;;;;;;5110450;27;20388;-72
2021/06/28 01:36:30;;;;;;;6.05;3.92;;;;;;;;;;5108807;28;20502;-72
2021/06/28 01:38:56;;;;;;;6.68;3.47;;;;;;;;;;5110484;28;20020;-73
2021/06/28 01:42:16;;;;;;;7.65;3.70;;;;;;;;;;5110158;27;20393;-72
2021/06/28 01:44:42;;;;;;;10.05;3.83;;;;;;;;;;5110727;28;20042;-72
2021/06/28 01:47:09;;;;;;;5.60;3.13;;;;;;;;;;5110703;28;20073;-72
2021/06/28 01:49:35;;;;;;;5.80;3.35;;;;;;;;;;5110033;28;20531;-72
2021/06/28 01:52:02;;;;;;;7.85;3.72;;;;;;;;;;5110348;28;20031;-72
2021/06/28 01:54:28;;;;;;;6.38;3.55;;;;;;;;;;5110306;28;20024;-72
2021/06/28 01:56:55;;;;;;;5.55;3.83;;;;;;;;;;5108574;28;20035;-72
2021/06/28 02:00:44;;;;;;;6.72;3.58;;;;;;;;;;5110502;27;20996;-72
2021/06/28 02:03:29;;;;;;;8.48;3.10;;;;;;;;;;5110243;28;20031;-72
2021/06/28 02:05:59;;;;;;;6.65;3.53;;;;;;;;;;5110498;28;20024;-72
2021/06/28 02:08:28;;;;;;;5.53;2.90;;;;;;;;;;5110411;28;20529;-72
2021/06/28 02:10:56;;;;;;;7.22;4.20;;;;;;;;;;5109951;28;20523;-72
2021/06/28 02:14:00;;;;;;;6.65;3.53;;;;;;;;;;5070019;28;20396;-72
2021/06/28 02:17:32;;;;;;;8.00;4.28;;;;;;;;;;5069625;28;20387;-72
2021/06/28 02:19:59;;;;;;;9.25;5.32;;;;;;;;;;5070111;28;20025;-72
2021/06/28 02:22:25;;;;;;;8.30;4.40;;;;;;;;;;5070116;28;20459;-71
2021/06/28 02:24:53;;;;;;;9.65;5.10;;;;;;;;;;5069534;28;20025;-72
2021/06/28 02:27:19;;;;;;;9.45;5.10;;;;;;;;;;5068529;28;20430;-72
2021/06/28 02:29:45;;;;;;;9.38;4.95;;;;;;;;;;5069726;28;20021;-72
2021/06/28 02:32:11;;;;;;;9.02;3.92;;;;;;;;;;5069363;28;20029;-72
2021/06/28 02:34:38;;;;;;;7.80;3.53;;;;;;;;;;5069618;28;20093;-72
2021/06/28 02:37:04;;;;;;;8.60;4.28;;;;;;;;;;5069865;28;20032;-72
2021/06/28 02:39:30;;;;;;;13.18;5.93;;;;;;;;;;5069272;28;20469;-72
2021/06/28 02:41:56;;;;;;;15.45;6.68;;;;;;;;;;5069840;28;20021;-72
2021/06/28 02:44:22;;;;;;;21.13;10.15;;;;;;;;;;5068220;28;20031;-72
2021/06/28 02:49:58;;;;;;;30.45;13.48;;;;;;;;;;5110512;27;20508;-72
2021/06/28 02:52:24;;;;;;;25.67;12.43;;;;;;;;;;5110152;28;20023;-72
2021/06/28 02:54:50;;;;;;;30.33;13.00;;;;;;;;;;5110416;28;20051;-73
2021/06/28 02:57:16;;;;;;;28.27;11.43;;;;;;;;;;5110426;28;20078;-72
2021/06/28 02:59:43;;;;;;;23.77;11.32;;;;;;;;;;5110092;28;20081;-72
2021/06/28 03:04:26;;;;;;;40.00;17.00;;;;;;;;;;5110633;27;20376;-72
2021/06/28 03:06:52;;;;;;;45.30;17.33;;;;;;;;;;5110084;28;20507;-72
2021/06/28 03:09:19;;;;;;;36.03;16.42;;;;;;;;;;5109143;28;20024;-72
2021/06/28 03:11:45;;;;;;;28.15;13.48;;;;;;;;;;5110400;28;20039;-72
2021/06/28 03:14:11;;;;;;;23.30;12.13;;;;;;;;;;5109966;28;20020;-72
2021/06/28 03:17:14;;;;;;;22.15;10.23;;;;;;;;;;5110402;27;20400;-72
2021/06/28 03:19:40;;;;;;;17.90;9.43;;;;;;;;;;5110548;28;20039;-72
2021/06/28 03:22:06;;;;;;;14.90;7.28;;;;;;;;;;5110284;28;20380;-72
2021/06/28 03:25:16;;;;;;;16.25;7.50;;;;;;;;;;5110541;27;20408;-72
2021/06/28 03:27:42;;;;;;;17.17;8.93;;;;;;;;;;5110316;28;20135;-72
2021/06/28 03:31:07;;;;;;;19.38;10.23;;;;;;;;;;5110373;27;20880;-72
2021/06/28 03:33:34;;;;;;;19.88;9.35;;;;;;;;;;5109098;28;20051;-72
2021/06/28 03:37:34;;;;;;;9.60;5.22;;;;;;;;;;5110399;27;20517;-72
2021/06/28 03:40:00;;;;;;;10.13;5.32;;;;;;;;;;5110716;28;20034;-73
2021/06/28 03:45:18;;;;;;;8.13;4.28;;;;;;;;;;5069902;28;21006;-72
2021/06/28 03:47:44;;;;;;;8.10;4.43;;;;;;;;;;5069938;28;20485;-72
2021/06/28 03:50:12;;;;;;;8.25;4.22;;;;;;;;;;5069327;28;20025;-72
2021/06/28 03:53:26;;;;;;;8.63;5.10;;;;;;;;;;5110647;27;20389;-72
2021/06/28 03:55:52;;;;;;;7.35;3.75;;;;;;;;;;5110023;28;20016;-72
2021/06/28 03:58:31;;;;;;;6.70;3.78;;;;;;;;;;5110430;27;20417;-72
2021/06/28 04:00:57;;;;;;;8.95;4.10;;;;;;;;;;5110751;28;20024;-72
2021/06/28 04:03:26;;;;;;;8.25;3.90;;;;;;;;;;5125806;28;20028;-72
2021/06/28 04:05:52;;;;;;;9.75;4.90;;;;;;;;;;5110599;28;20024;-72
2021/06/28 04:08:18;;;;;;;9.57;4.43;;;;;;;;;;5110339;28;20471;-72
2021/06/28 04:10:45;;;;;;;6.38;4.20;;;;;;;;;;5110192;28;20027;-73
2021/06/28 04:13:11;;;;;;;7.35;4.07;;;;;;;;;;5110313;28;20067;-73
2021/06/28 04:15:37;;;;;;;6.95;4.05;;;;;;;;;;5110157;28;20472;-73
2021/06/28 04:18:04;;;;;;;9.88;4.05;;;;;;;;;;5125650;28;20036;-72
2021/06/28 04:20:30;;;;;;;6.85;3.58;;;;;;;;;;5110289;28;20495;-73
2021/06/28 04:22:56;;;;;;;5.90;3.67;;;;;;;;;;5110372;28;20024;-74
2021/06/28 04:25:24;;;;;;;8.93;4.03;;;;;;;;;;5109618;28;20012;-72
2021/06/28 04:27:50;;;;;;;7.97;4.15;;;;;;;;;;5109977;28;20016;-72
2021/06/28 04:30:17;;;;;;;7.07;3.90;;;;;;;;;;5109853;28;20012;-72
2021/06/28 04:32:44;;;;;;;6.35;3.85;;;;;;;;;;5109849;28;20050;-72
2021/06/28 04:35:12;;;;;;;6.85;4.03;;;;;;;;;;5109811;28;20035;-72
2021/06/28 04:37:39;;;;;;;5.60;3.80;;;;;;;;;;5109731;28;20033;-72
2021/06/28 04:41:49;;;;;;;7.85;3.95;;;;;;;;;;5070215;28;20435;-72
2021/06/28 04:45:51;;;;;;;7.53;4.28;;;;;;;;;;5110136;27;20408;-72
2021/06/28 04:48:17;;;;;;;8.57;4.78;;;;;;;;;;5110469;28;20529;-72
2021/06/28 04:50:43;;;;;;;7.70;3.90;;;;;;;;;;5110421;28;20019;-72
2021/06/28 04:53:10;;;;;;;13.98;5.38;;;;;;;;;;5110012;28;20030;-72
2021/06/28 04:55:36;;;;;;;8.40;4.55;;;;;;;;;;5108994;28;20059;-72
2021/06/28 04:58:02;;;;;;;9.00;4.80;;;;;;;;;;5110367;28;20020;-66
2021/06/28 05:00:28;;;;;;;8.73;4.63;;;;;;;;;;5110018;28;20032;-66
2021/06/28 05:02:54;;;;;;;10.05;6.05;;;;;;;;;;5110394;28;20042;-66
2021/06/28 05:05:21;;;;;;;12.50;6.88;;;;;;;;;;5106746;28;20056;-65
2021/06/28 05:07:47;;;;;;;16.77;7.13;;;;;;;;;;5107843;28;20380;-65
2021/06/28 05:10:14;;;;;;;17.52;6.93;;;;;;;;;;5126696;28;20027;-66
2021/06/28 05:12:40;;;;;;;12.23;6.78;;;;;;;;;;5128410;28;20388;-65
2021/06/28 05:15:07;;;;;;;15.35;7.43;;;;;;;;;;5129124;28;20072;-65
2021/06/28 05:17:33;;;;;;;16.05;7.38;;;;;;;;;;5130309;28;20116;-66
2021/06/28 05:20:37;;;;;;;17.95;6.72;;;;;;;;;;5110493;27;20393;-66
2021/06/28 05:23:04;;;;;;;14.98;6.38;;;;;;;;;;5110444;28;20442;-65
2021/06/28 05:25:30;;;;;;;18.52;9.10;;;;;;;;;;5107512;28;20132;-66
2021/06/28 05:27:58;;;;;;;14.55;8.13;;;;;;;;;;5108921;28;20020;-66
2021/06/28 05:30:24;;;;;;;17.30;8.02;;;;;;;;;;5107784;28;20066;-65
2021/06/28 05:32:51;;;;;;;14.65;6.97;;;;;;;;;;5108054;28;20020;-69
2021/06/28 05:35:17;;;;;;;15.88;7.40;;;;;;;;;;5108074;28;20419;-69
2021/06/28 05:41:53;;;;;;;18.23;9.75;;;;;;;;;;5067525;28;20480;-70
2021/06/28 05:44:19;;;;;;;19.23;10.43;;;;;;;;;;5067879;28;20056;-69
2021/06/28 05:46:45;;;;;;;22.63;9.45;;;;;;;;;;5068133;28;20031;-70
2021/06/28 05:49:12;;;;;;;16.52;8.25;;;;;;;;;;5067035;28;20029;-69
2021/06/28 05:51:38;;;;;;;22.95;10.77;;;;;;;;;;5068389;28;20021;-73
2021/06/28 05:54:04;;;;;;;17.50;8.35;;;;;;;;;;5067084;28;20472;-74
2021/06/28 05:58:22;;;;;;;16.73;8.65;;;;;;;;;;5109509;27;20393;-72
2021/06/28 06:00:49;;;;;;;14.63;7.25;;;;;;;;;;5103244;28;20031;-71
2021/06/28 06:03:15;;;;;;;13.23;5.85;;;;;;;;;;5104232;28;20034;-72
2021/06/28 06:05:41;;;;;;;10.68;5.78;;;;;;;;;;5109664;28;20495;-71
2021/06/28 06:08:36;;;;;;;10.52;5.78;;;;;;;;;;5109478;27;20389;-71
2021/06/28 06:11:03;;;;;;;11.00;6.05;;;;;;;;;;5108995;28;20107;-72
2021/06/28 06:15:37;;;;;;;16.63;8.40;;;;;;;;;;5068476;28;20407;-72
2021/06/28 06:18:03;;;;;;;16.25;8.43;;;;;;;;;;5068665;28;20052;-72
2021/06/28 06:20:29;;;;;;;13.45;7.57;;;;;;;;;;5069463;28;20031;-72
2021/06/28 06:22:55;;;;;;;12.88;6.93;;;;;;;;;;5068863;28;20048;-73
2021/06/28 06:25:21;;;;;;;12.52;7.20;;;;;;;;;;5065019;28;20021;-73
2021/06/28 06:29:26;;;;;;;14.07;6.25;;;;;;;;;;5109464;27;20388;-72
2021/06/28 06:31:53;;;;;;;15.75;6.88;;;;;;;;;;5109304;28;20024;-72
2021/06/28 06:34:19;;;;;;;15.43;7.35;;;;;;;;;;5109894;28;20023;-70
2021/06/28 06:36:45;;;;;;;10.43;5.80;;;;;;;;;;5123221;28;20365;-72
2021/06/28 06:39:11;;;;;;;13.45;6.97;;;;;;;;;;5088508;28;20032;-72
2021/06/28 06:41:38;;;;;;;11.45;5.18;;;;;;;;;;5087796;28;20032;-72
2021/06/28 06:44:04;;;;;;;14.02;6.07;;;;;;;;;;5088739;28;20020;-73
2021/06/28 06:46:30;;;;;;;12.27;5.35;;;;;;;;;;5086197;28;20025;-72
2021/06/28 06:48:56;;;;;;;11.43;6.38;;;;;;;;;;5117983;28;20119;-72
2021/06/28 06:51:23;;;;;;;8.70;5.30;;;;;;;;;;5108806;28;20379;-72
2021/06/28 06:53:49;;;;;;;12.68;5.63;;;;;;;;;;5109369;28;20103;-72
2021/06/28 06:56:15;;;;;;;14.45;6.85;;;;;;;;;;5101381;28;20404;-75
2021/06/28 06:58:41;;;;;;;15.35;6.03;;;;;;;;;;5088589;28;20109;-73
2021/06/28 07:01:10;;;;;;;11.05;5.68;;;;;;;;;;5089351;28;20024;-72
2021/06/28 07:03:36;;;;;;;13.05;5.88;;;;;;;;;;5088857;28;20029;-73
2021/06/28 07:06:02;;;;;;;10.50;5.97;;;;;;;;;;5085887;28;20043;-73
2021/06/28 07:08:28;;;;;;;13.63;5.95;;;;;;;;;;5086457;28;20036;-71
2021/06/28 07:10:55;;;;;;;11.60;6.07;;;;;;;;;;5086803;28;20353;-72
2021/06/28 07:13:21;;;;;;;10.48;4.93;;;;;;;;;;5086336;28;20246;-71
2021/06/28 07:15:47;;;;;;;12.90;6.00;;;;;;;;;;5086554;28;20353;-72
2021/06/28 07:18:13;;;;;;;10.25;4.78;;;;;;;;;;5088717;28;20032;-72
2021/06/28 07:20:39;;;;;;;7.10;4.05;;;;;;;;;;5102182;28;20675;-72
2021/06/28 07:23:06;;;;;;;7.90;4.22;;;;;;;;;;5107824;28;20107;-72
2021/06/28 07:25:32;;;;;;;8.10;3.70;;;;;;;;;;5107388;28;20038;-73
2021/06/28 07:27:58;;;;;;;7.30;3.85;;;;;;;;;;5107246;28;20044;-73
2021/06/28 07:30:24;;;;;;;9.45;4.45;;;;;;;;;;5108482;28;20100;-73
2021/06/28 07:32:51;;;;;;;8.93;3.92;;;;;;;;;;5106914;28;20066;-73
2021/06/28 07:35:18;;;;;;;8.60;4.10;;;;;;;;;;5092828;28;20056;-73
2021/06/28 07:37:44;;;;;;;5.60;3.10;;;;;;;;;;5089815;28;20025;-72
2021/06/28 07:40:13;;;;;;;5.45;3.05;;;;;;;;;;5073502;28;20053;-73
2021/06/28 07:42:39;;;;;;;7.05;3.00;;;;;;;;;;5082797;28;20488;-73
2021/06/28 07:45:06;;;;;;;6.72;3.75;;;;;;;;;;5093008;28;20077;-73
2021/06/28 07:47:33;;;;;;;7.80;3.90;;;;;;;;;;5092861;28;20690;-73
2021/06/28 07:49:59;;;;;;;4.70;2.67;;;;;;;;;;5094023;28;20032;-72
2021/06/28 07:52:26;;;;;;;5.18;2.70;;;;;;;;;;5093552;28;20020;-73
2021/06/28 07:54:53;;;;;;;6.93;3.47;;;;;;;;;;5092291;28;20106;-73
2021/06/28 07:57:19;;;;;;;5.47;3.15;;;;;;;;;;5086529;28;20054;-72
2021/06/28 07:59:45;;;;;;;4.50;2.40;;;;;;;;;;5087494;28;20032;-72
2021/06/28 08:02:11;;;;;;;4.45;2.63;;;;;;;;;;5083602;28;20059;-72
2021/06/28 08:04:38;;;;;;;7.22;2.85;;;;;;;;;;5094343;28;20029;-72
2021/06/28 08:07:04;;;;;;;5.95;2.92;;;;;;;;;;5083602;28;20020;-72
2021/06/28 08:09:30;;;;;;;5.68;3.15;;;;;;;;;;5073431;28;20432;-72
2021/06/28 08:11:58;;;;;;;4.93;2.83;;;;;;;;;;5091059;28;20103;-72
2021/06/28 08:14:25;;;;;;;6.05;2.90;;;;;;;;;;5090499;28;20073;-71
2021/06/28 08:16:51;;;;;;;6.28;3.17;;;;;;;;;;5090823;28;20016;-71
2021/06/28 08:19:17;;;;;;;5.38;2.90;;;;;;;;;;5073312;28;20498;-71
2021/06/28 08:21:44;;;;;;;6.18;3.50;;;;;;;;;;5084640;28;20111;-73
2021/06/28 08:24:10;;;;;;;6.65;2.92;;;;;;;;;;5092111;28;20106;-73
2021/06/28 08:26:37;;;;;;;8.10;3.47;;;;;;;;;;5106545;28;20024;-73
2021/06/28 08:29:04;;;;;;;5.22;2.72;;;;;;;;;;5081796;28;20049;-73
2021/06/28 08:31:34;;;;;;;5.32;2.88;;;;;;;;;;5107001;28;20120;-73
2021/06/28 08:34:00;;;;;;;6.82;3.40;;;;;;;;;;5093614;28;20024;-72
2021/06/28 08:36:26;;;;;;;5.80;3.13;;;;;;;;;;5107783;28;20020;-72
2021/06/28 08:38:53;;;;;;;4.97;3.25;;;;;;;;;;5104152;28;20366;-73
2021/06/28 08:41:19;;;;;;;4.90;3.08;;;;;;;;;;5075601;28;20103;-73
2021/06/28 08:43:46;;;;;;;6.28;3.35;;;;;;;;;;5073032;28;20036;-73
2021/06/28 08:46:18;;;;;;;6.13;3.75;;;;;;;;;;5073397;28;20048;-73
2021/06/28 08:48:44;;;;;;;5.50;3.65;;;;;;;;;;5074235;28;20516;-75
2021/06/28 08:51:11;;;;;;;6.47;3.67;;;;;;;;;;5091587;28;20028;-74
2021/06/28 08:53:38;;;;;;;9.20;3.92;;;;;;;;;;5095501;28;20445;-73
2021/06/28 08:56:09;;;;;;;5.57;3.50;;;;;;;;;;5091758;28;20032;-75
2021/06/28 08:58:35;;;;;;;5.28;3.20;;;;;;;;;;5097455;28;20024;-73
2021/06/28 09:01:02;;;;;;;7.50;4.32;;;;;;;;;;5094022;28;20069;-75
2021/06/28 09:03:28;;;;;;;8.48;4.63;;;;;;;;;;5092034;28;20024;-76
2021/06/28 09:05:59;;;;;;;8.95;4.00;;;;;;;;;;5091653;28;20020;-74
2021/06/28 09:08:26;;;;;;;6.80;3.70;;;;;;;;;;5091405;28;20487;-75
2021/06/28 09:10:52;;;;;;;10.43;4.07;;;;;;;;;;5091639;28;20090;-73
2021/06/28 09:13:18;;;;;;;5.63;3.33;;;;;;;;;;5090620;28;20020;-74
2021/06/28 09:15:50;;;;;;;7.60;4.10;;;;;;;;;;5091189;28;20384;-72
2021/06/28 09:18:16;;;;;;;6.17;3.67;;;;;;;;;;5087750;28;20060;-75
2021/06/28 09:20:42;;;;;;;6.47;3.67;;;;;;;;;;5090189;28;20024;-75
2021/06/28 09:23:25;;;;;;;8.30;3.47;;;;;;;;;;5091471;28;20035;-73
2021/06/28 09:25:53;;;;;;;7.07;3.17;;;;;;;;;;5090714;28;20464;-74
2021/06/28 09:28:35;;;;;;;7.03;3.83;;;;;;;;;;5078914;28;20055;-74
2021/06/28 09:31:02;;;;;;;8.25;3.72;;;;;;;;;;5085931;28;20102;-73
2021/06/28 09:33:28;;;;;;;5.28;2.97;;;;;;;;;;5092097;28;20020;-77
2021/06/28 09:35:54;;;;;;;6.93;3.40;;;;;;;;;;5093609;28;20027;-74
2021/06/28 09:38:31;;;;;;;5.38;3.13;;;;;;;;;;5094310;28;20027;-80
2021/06/28 09:41:17;;;;;;;5.90;3.15;;;;;;;;;;5091859;28;20106;-75
2021/06/28 09:43:43;;;;;;;9.60;3.97;;;;;;;;;;5091452;28;20663;-74
2021/06/28 09:46:20;;;;;;;7.05;3.47;;;;;;;;;;5088365;28;20028;-74
2021/06/28 09:48:50;;;;;;;6.55;3.67;;;;;;;;;;5088677;28;20040;-73
2021/06/28 09:51:19;;;;;;;7.18;3.50;;;;;;;;;;5088402;28;20024;-73
2021/06/28 09:53:46;;;;;;;6.57;3.33;;;;;;;;;;5087638;28;20085;-75
2021/06/28 09:56:31;;;;;;;7.55;4.03;;;;;;;;;;5087290;28;20500;-74
2021/06/28 09:58:57;;;;;;;5.88;3.58;;;;;;;;;;5084708;28;20092;-73
2021/06/28 10:01:27;;;;;;;7.88;4.10;;;;;;;;;;5083707;28;20559;-69
2021/06/28 10:03:54;;;;;;;5.40;3.28;;;;;;;;;;5087441;28;20031;-71
2021/06/28 10:08:50;;;;;;;5.88;3.30;;;;;;;;;;5089474;28;20094;-70
2021/06/28 10:11:19;;;;;;;5.28;3.67;;;;;;;;;;5090310;28;20024;-70
2021/06/28 10:13:46;;;;;;;7.10;3.60;;;;;;;;;;5084050;28;20048;-70
2021/06/28 10:16:13;;;;;;;5.78;3.55;;;;;;;;;;5068770;28;20100;-69
2021/06/28 10:18:39;;;;;;;7.85;3.85;;;;;;;;;;5070598;28;20505;-70
2021/06/28 10:21:08;;;;;;;7.38;3.60;;;;;;;;;;5071643;28;20066;-71
2021/06/28 10:23:35;;;;;;;4.68;3.10;;;;;;;;;;5068703;28;20024;-71
2021/06/28 10:26:01;;;;;;;7.22;3.35;;;;;;;;;;5081107;28;20065;-70
2021/06/28 10:28:28;;;;;;;7.55;2.88;;;;;;;;;;5091017;28;20043;-70
2021/06/28 10:30:54;;;;;;;7.45;3.47;;;;;;;;;;5091095;28;20369;-72
2021/06/28 10:33:23;;;;;;;9.60;4.10;;;;;;;;;;5091473;28;20028;-70
2021/06/28 10:35:49;;;;;;;10.07;3.88;;;;;;;;;;5091167;28;20047;-73
2021/06/28 10:38:16;;;;;;;6.70;3.47;;;;;;;;;;5091783;28;20024;-70
2021/06/28 10:40:45;;;;;;;7.32;3.80;;;;;;;;;;5091397;28;20028;-69
2021/06/28 10:43:21;;;;;;;6.97;3.63;;;;;;;;;;5091074;28;20078;-71
2021/06/28 10:45:48;;;;;;;11.55;4.30;;;;;;;;;;5089786;28;20028;-71
2021/06/28 10:48:19;;;;;;;9.80;4.22;;;;;;;;;;5090387;28;20040;-72
2021/06/28 10:51:04;;;;;;;6.00;3.42;;;;;;;;;;5091036;28;20408;-71
2021/06/28 10:53:33;;;;;;;6.85;3.22;;;;;;;;;;5091611;28;20028;-72
2021/06/28 10:56:25;;;;;;;6.88;3.92;;;;;;;;;;5090928;28;20479;-70
2021/06/28 10:58:56;;;;;;;7.85;4.00;;;;;;;;;;5091000;28;20032;-70
2021/06/28 11:01:41;;;;;;;7.10;3.38;;;;;;;;;;5089826;28;20522;-71
2021/06/28 11:04:15;;;;;;;7.70;3.80;;;;;;;;;;5091150;28;20047;-72
2021/06/28 11:06:53;;;;;;;7.53;3.58;;;;;;;;;;5090579;28;20027;-71
2021/06/28 11:09:35;;;;;;;8.85;4.18;;;;;;;;;;5089641;28;20043;-69
2021/06/28 11:12:01;;;;;;;6.65;3.55;;;;;;;;;;5089648;28;20074;-70
2021/06/28 11:14:28;;;;;;;5.97;3.90;;;;;;;;;;5091105;28;20047;-69
2021/06/28 11:17:08;;;;;;;6.45;3.55;;;;;;;;;;5095043;28;20056;-70
2021/06/28 11:19:48;;;;;;;5.82;3.28;;;;;;;;;;5092553;28;20611;-69
2021/06/28 11:22:27;;;;;;;11.70;3.85;;;;;;;;;;5095064;28;20047;-70
2021/06/28 11:25:04;;;;;;;13.70;3.78;;;;;;;;;;5093497;28;20032;-70
2021/06/28 11:27:31;;;;;;;14.05;4.03;;;;;;;;;;5095037;28;20052;-69
2021/06/28 11:29:57;;;;;;;7.28;3.78;;;;;;;;;;5094357;28;20057;-70
2021/06/28 11:32:24;;;;;;;5.75;3.33;;;;;;;;;;5095316;28;20365;-70
2021/06/28 11:34:51;;;;;;;7.78;4.05;;;;;;;;;;5094471;28;20545;-70
2021/06/28 11:37:17;;;;;;;7.63;4.00;;;;;;;;;;5095468;28;20117;-69
2021/06/28 11:39:57;;;;;;;6.93;3.42;;;;;;;;;;5095166;28;20020;-70
2021/06/28 11:42:30;;;;;;;6.82;3.78;;;;;;;;;;5094115;28;20024;-70
2021/06/28 11:44:59;;;;;;;10.88;3.53;;;;;;;;;;5095374;28;20024;-70
2021/06/28 11:47:43;;;;;;;7.88;3.35;;;;;;;;;;5093422;28;20020;-69
2021/06/28 11:50:25;;;;;;;5.47;3.53;;;;;;;;;;5095407;28;20028;-70
2021/06/28 11:53:03;;;;;;;8.75;3.72;;;;;;;;;;5094153;28;20090;-70
2021/06/28 11:55:31;;;;;;;6.18;3.50;;;;;;;;;;5094952;28;20039;-70
2021/06/28 11:57:59;;;;;;;6.88;3.78;;;;;;;;;;5095177;28;20028;-70
2021/06/28 12:00:25;;;;;;;5.50;3.25;;;;;;;;;;5093513;28;20028;-70
2021/06/28 12:03:10;;;;;;;7.68;3.38;;;;;;;;;;5094310;28;20016;-72
2021/06/28 12:05:37;;;;;;;14.55;3.88;;;;;;;;;;5095017;28;20050;-70
2021/06/28 12:08:03;;;;;;;7.63;3.25;;;;;;;;;;5094582;28;20031;-70
2021/06/28 12:10:29;;;;;;;5.03;2.90;;;;;;;;;;5094998;28;20099;-70
2021/06/28 12:12:56;;;;;;;4.90;2.95;;;;;;;;;;5095126;28;20108;-69
2021/06/28 12:15:26;;;;;;;11.55;4.10;;;;;;;;;;5094475;28;20054;-69
2021/06/28 12:17:52;;;;;;;6.72;2.88;;;;;;;;;;5094690;28;20103;-70
2021/06/28 12:20:19;;;;;;;6.00;3.25;;;;;;;;;;5093446;28;20476;-69
2021/06/28 12:22:47;;;;;;;5.18;3.13;;;;;;;;;;5094362;28;20034;-69
2021/06/28 12:25:14;;;;;;;5.00;2.70;;;;;;;;;;5094371;28;20027;-70
2021/06/28 12:27:42;;;;;;;6.82;3.30;;;;;;;;;;5094463;28;20093;-70
2021/06/28 12:30:12;;;;;;;5.85;3.17;;;;;;;;;;5094381;28;20022;-70
2021/06/28 12:32:44;;;;;;;5.18;2.90;;;;;;;;;;5093388;28;20028;-70
2021/06/28 12:35:12;;;;;;;6.28;3.25;;;;;;;;;;5093259;28;20024;-70
2021/06/28 12:37:39;;;;;;;7.22;3.25;;;;;;;;;;5092749;28;20027;-70
2021/06/28 12:40:15;;;;;;;9.05;3.97;;;;;;;;;;5094512;28;20025;-71
2021/06/28 12:42:56;;;;;;;7.32;3.20;;;;;;;;;;5092690;28;20107;-71
2021/06/28 12:45:28;;;;;;;5.30;2.50;;;;;;;;;;5094413;28;20432;-70
2021/06/28 12:47:56;;;;;;;4.28;2.75;;;;;;;;;;5094268;28;20054;-70
2021/06/28 12:50:25;;;;;;;6.95;3.17;;;;;;;;;;5094093;28;20499;-70
2021/06/28 12:52:52;;;;;;;5.65;2.80;;;;;;;;;;5094343;28;20070;-70
2021/06/28 12:55:26;;;;;;;5.28;2.80;;;;;;;;;;5092851;28;20116;-71
2021/06/28 12:58:06;;;;;;;6.60;2.80;;;;;;;;;;5093523;28;20024;-71
2021/06/28 13:00:34;;;;;;;4.07;2.38;;;;;;;;;;5092093;28;20039;-70
2021/06/28 13:03:00;;;;;;;12.38;3.33;;;;;;;;;;5092907;28;20103;-70
2021/06/28 13:05:35;;;;;;;4.93;2.75;;;;;;;;;;5092931;28;20031;-69
2021/06/28 13:08:18;;;;;;;7.63;3.05;;;;;;;;;;5093695;28;20035;-69
2021/06/28 13:10:58;;;;;;;4.70;2.40;;;;;;;;;;5093683;28;20487;-69
2021/06/28 13:13:25;;;;;;;5.78;2.90;;;;;;;;;;5094124;28;20020;-70
2021/06/28 13:16:07;;;;;;;5.00;2.28;;;;;;;;;;5093852;28;20027;-69
2021/06/28 13:18:34;;;;;;;6.90;2.38;;;;;;;;;;5093395;28;20024;-69
2021/06/28 13:21:01;;;;;;;5.72;2.70;;;;;;;;;;5093836;28;20020;-70
2021/06/28 13:23:27;;;;;;;10.30;3.60;;;;;;;;;;5093645;28;20024;-69
2021/06/28 13:25:54;;;;;;;5.65;2.65;;;;;;;;;;5093267;28;20020;-70
2021/06/28 13:28:20;;;;;;;7.43;2.85;;;;;;;;;;5093447;28;20520;-70
2021/06/28 13:30:46;;;;;;;4.30;2.65;;;;;;;;;;5093592;28;20028;-70
2021/06/28 13:33:13;;;;;;;7.45;3.30;;;;;;;;;;5092103;28;20069;-70
2021/06/28 13:35:43;;;;;;;5.82;2.80;;;;;;;;;;5093470;28;20201;-69
2021/06/28 13:38:13;;;;;;;7.45;2.85;;;;;;;;;;5092965;28;20549;-70
2021/06/28 13:40:44;;;;;;;5.03;2.60;;;;;;;;;;5091696;28;20062;-68
2021/06/28 13:43:18;;;;;;;6.47;2.80;;;;;;;;;;5093322;28;20027;-68
2021/06/28 13:45:45;;;;;;;5.88;2.60;;;;;;;;;;5093364;28;20407;-68
2021/06/28 13:48:12;;;;;;;4.22;2.38;;;;;;;;;;5092670;28;20046;-69
2021/06/28 13:50:39;;;;;;;4.80;2.33;;;;;;;;;;5093199;28;20047;-69
2021/06/28 13:53:08;;;;;;;4.60;2.42;;;;;;;;;;5092961;28;20046;-68
2021/06/28 13:55:35;;;;;;;4.97;2.83;;;;;;;;;;5091913;28;20052;-68
2021/06/28 13:58:03;;;;;;;4.10;2.35;;;;;;;;;;5093192;28;20095;-68
2021/06/28 14:00:37;;;;;;;5.78;2.60;;;;;;;;;;5091412;28;20027;-68
2021/06/28 14:03:04;;;;;;;4.82;2.53;;;;;;;;;;5092922;28;20016;-68
2021/06/28 14:05:30;;;;;;;4.85;2.75;;;;;;;;;;5093025;28;20030;-68
2021/06/28 14:07:57;;;;;;;7.65;3.20;;;;;;;;;;5092423;28;20032;-69
2021/06/28 14:10:23;;;;;;;4.20;2.55;;;;;;;;;;5092924;28;20035;-68
2021/06/28 14:12:49;;;;;;;4.47;2.42;;;;;;;;;;5093172;28;20035;-68
2021/06/28 14:15:16;;;;;;;7.28;2.97;;;;;;;;;;5092663;28;20020;-68
2021/06/28 14:17:43;;;;;;;5.75;2.05;;;;;;;;;;5092884;28;20468;-69
2021/06/28 14:20:12;;;;;;;7.20;2.72;;;;;;;;;;5091416;28;20035;-69
2021/06/28 14:22:38;;;;;;;6.00;2.60;;;;;;;;;;5091041;28;20722;-68
2021/06/28 14:25:09;;;;;;;5.47;2.92;;;;;;;;;;5091440;28;20030;-68
2021/06/28 14:27:35;;;;;;;;;;;;;;;;;;5092843;28;20043;-68
2021/06/28 14:30:02;;;;;;;5.22;2.60;;;;;;;;;;5092386;28;19904;-68
2021/06/28 14:32:31;;;;;;;3.33;2.13;;;;;;;;;;5092788;28;20052;-69
2021/06/28 14:34:58;;;;;;;10.80;2.78;;;;;;;;;;5092729;28;20465;-69
2021/06/28 14:37:24;;;;;;;10.23;3.67;;;;;;;;;;5092283;28;20408;-69
2021/06/28 14:39:51;;;;;;;4.68;2.92;;;;;;;;;;5091331;28;20357;-69
2021/06/28 14:42:18;;;;;;;6.70;3.00;;;;;;;;;;5092192;28;20085;-68
2021/06/28 14:44:44;;;;;;;4.22;2.78;;;;;;;;;;5092595;28;20021;-69
2021/06/28 14:47:10;;;;;;;7.35;3.40;;;;;;;;;;5092543;28;20073;-69
2021/06/28 14:49:36;;;;;;;6.32;2.60;;;;;;;;;;5093233;28;20036;-69
2021/06/28 14:52:03;;;;;;;5.60;2.47;;;;;;;;;;5096718;28;20453;-69
2021/06/28 14:54:30;;;;;;;4.18;2.70;;;;;;;;;;5096726;28;20024;-69
2021/06/28 14:56:57;;;;;;;5.85;2.85;;;;;;;;;;5096227;28;20013;-69
2021/06/28 14:59:24;;;;;;;5.15;2.90;;;;;;;;;;5096408;28;20142;-69
2021/06/28 15:01:50;;;;;;;4.50;2.33;;;;;;;;;;5096351;28;20379;-69
2021/06/28 15:04:16;;;;;;;8.43;2.80;;;;;;;;;;5095982;28;20035;-70
2021/06/28 15:06:42;;;;;;;6.00;3.40;;;;;;;;;;5095028;28;20073;-70
2021/06/28 15:09:08;;;;;;;6.35;2.97;;;;;;;;;;5096086;28;20071;-70
2021/06/28 15:11:37;;;;;;;4.80;2.47;;;;;;;;;;5095956;28;20540;-69
2021/06/28 15:14:03;;;;;;;4.03;2.42;;;;;;;;;;5096285;28;20059;-69
2021/06/28 15:16:29;;;;;;;4.70;2.75;;;;;;;;;;5096151;28;20613;-68
2021/06/28 15:18:56;;;;;;;5.22;2.92;;;;;;;;;;5094331;28;20020;-69
2021/06/28 15:21:23;;;;;;;7.18;2.83;;;;;;;;;;5095968;28;20506;-68
2021/06/28 15:23:50;;;;;;;4.72;2.78;;;;;;;;;;5095934;28;20024;-69
2021/06/28 15:26:16;;;;;;;5.85;3.00;;;;;;;;;;5094578;28;20384;-69
2021/06/28 15:28:42;;;;;;;5.13;2.58;;;;;;;;;;5095591;28;20119;-69
2021/06/28 15:31:10;;;;;;;3.90;2.72;;;;;;;;;;5095755;28;20016;-69